SBBRSBGO

Guest
Details From SBBR - Brasilia Presidente Juscelino Kubitsch
To SBGO - Santo Genoveva
Flight Number -
Tags generated
Created
Modified
Stats Distance 88 nm / 163 km
Max Altitude 0 ft / 0 m
Waypoints 3
Social Downloads 9
Likes 0
Share VATSIM

Download

Looking for another format? Having issues loading an existing format? Contact us
Advertisement - Login to hide

Notes

Basic altitude profile: - Ascent Rate: 2500ft/min - Ascent Speed: 250kts - Cruise Altitude: 400000ft - Cruise Speed: 420kts - Descent Rate: 1500ft/min - Descent Speed: 200kts Options: - Use NATs: yes - Use PACOTS: yes - Use low airways: no - Use high airways: yes

Route

SBBR GOI SBGO

ID Type Via Altitude Latitude Longitude Leg Dist Tot Dist Heading (true) Name
O SBBR APT - 0 ft / 0 m -15.87110˚ -47.91863˚ - 0 nm - Brasilia Presidente Juscelino Kubitsch
GOI VOR - 0 ft / 0 m -16.63243˚ -49.21536˚ 87 nm 87 nm 238° / 239° GOIANIA VOR-DME
O SBGO APT - 0 ft / 0 m -16.63203˚ -49.22069˚ 0 nm 87 nm 274° / 274° Santo Genoveva

Altitude Profile

Advertisement - Login to hide

SBBR

Details ICAO SBBR (BSB)
Name Brasilia Presidente Juscelino Kubitsch
Region Brazil
Timezone America/Sao_Paulo (UTC-3.0)
Stats Elevation 3,479 ft / 1,060 m (AMSL)
Location -15.871101° -47.918626°
Runways 2
Magnetic Variation 21.593° W

METAR

SBBR 201000Z 00000KT 9999 SCT010 14/14 Q1018

Decode

TAF

TAF SBBR 200400Z 2006/2106 24005KT CAVOK TN13/2009Z TX22/2015Z PROB30 2008/2012 9999 RA BKN015 BECMG 2014/2016 04007KT 9999 SCT035 PROB30 2018/2020 SCT030 FEW040TCU BECMG 2022/2024 22005KT 8000 NSC BECMG 2102/2104 14005KT RMK PDS

Decode

Departure Runways

ID Width Length Bearing (true) Bearing (mag) Surface Threshold Offset Overrun Length
11L 148 ft / 45 m 10,493 ft / 3,198 m 86.35° 107.94° Asphalt 0 ft / 0 m 200 ft / 61 m
11R 148 ft / 45 m 10,839 ft / 3,304 m 86.00° 107.59° Asphalt 2,635 ft / 803 m 200 ft / 61 m
29L 148 ft / 45 m 10,839 ft / 3,304 m 265.99° 287.58° Asphalt 0 ft / 0 m 200 ft / 61 m
29R 148 ft / 45 m 10,493 ft / 3,198 m 266.34° 287.93° Asphalt 0 ft / 0 m 200 ft / 61 m

SBGO

Details ICAO SBGO (GYN)
Name Santo Genoveva
Region Brazil
Timezone America/Sao_Paulo (UTC-3.0)
Stats Elevation 2,450 ft / 747 m (AMSL)
Location -16.632032° -49.220686°
Runways 1
Magnetic Variation 21.038° W

METAR

SBGO 201000Z 14006KT 120V180 9999 BKN010 16/14 Q1018

Decode

TAF

TAF SBGO 200400Z 2006/2106 20008KT CAVOK TN16/2009Z TX23/2015Z PROB30 2006/2011 BKN010 BECMG 2014/2016 16005KT FEW035 FEW045TCU BECMG 2022/2024 14005KT 8000 NSC BECMG 2102/2104 13005KT RMK PDS

Decode

Destination Runways

ID Width Length Bearing (true) Bearing (mag) Surface Threshold Offset Overrun Length
14 148 ft / 45 m 8,208 ft / 2,502 m 120.42° 141.46° Asphalt 0 ft / 0 m 0 ft / 0 m
32 148 ft / 45 m 8,208 ft / 2,502 m 300.41° 321.45° Asphalt 980 ft / 299 m 0 ft / 0 m

Popular Alternatives